createdAt,value
2018-09-19T00:00:04.918Z,17.13
2018-09-19T00:01:04.925Z,17.13
2018-09-19T00:02:04.929Z,17.17
2018-09-19T00:03:04.912Z,17.18
2018-09-19T00:04:04.915Z,17.13
2018-09-19T00:05:04.924Z,17.08
2018-09-19T00:06:04.906Z,17.14
2018-09-19T00:07:04.899Z,17.07
2018-09-19T00:08:04.901Z,17.10
2018-09-19T00:09:04.957Z,17.13
2018-09-19T00:10:04.904Z,17.14
2018-09-19T00:11:04.893Z,17.08
2018-09-19T00:12:04.884Z,17.07
2018-09-19T00:13:04.883Z,17.04
2018-09-19T00:14:04.889Z,17.00
2018-09-19T00:15:04.881Z,16.93
2018-09-19T00:16:04.878Z,16.96
2018-09-19T00:17:04.908Z,16.95
2018-09-19T00:18:04.912Z,16.85
2018-09-19T00:19:04.867Z,16.67
2018-09-19T00:20:04.886Z,16.44
2018-09-19T00:21:04.874Z,16.41
2018-09-19T00:22:04.872Z,16.34
2018-09-19T00:23:04.860Z,16.34
2018-09-19T00:24:04.866Z,16.25
2018-09-19T00:25:04.865Z,16.30
2018-09-19T00:26:04.849Z,16.23
2018-09-19T00:27:04.845Z,16.25
2018-09-19T00:28:04.843Z,16.26
2018-09-19T00:29:04.838Z,16.25
2018-09-19T00:30:04.837Z,16.14
2018-09-19T00:31:04.831Z,16.15
2018-09-19T00:32:04.902Z,16.23
2018-09-19T00:33:04.830Z,16.16
2018-09-19T00:34:04.822Z,16.22
2018-09-19T00:35:04.821Z,16.16
2018-09-19T00:36:04.818Z,16.14
2018-09-19T00:37:04.815Z,16.07
2018-09-19T00:38:04.810Z,15.99
2018-09-19T00:39:04.810Z,15.96
2018-09-19T00:40:04.804Z,15.88
2018-09-19T00:41:04.805Z,15.88
2018-09-19T00:42:04.803Z,15.79
2018-09-19T00:43:04.797Z,15.76
2018-09-19T00:44:04.792Z,15.74
2018-09-19T00:45:04.787Z,15.72
2018-09-19T00:46:04.790Z,15.72
2018-09-19T00:47:04.817Z,15.68
2018-09-19T00:48:04.782Z,15.72
2018-09-19T00:49:04.781Z,15.66
2018-09-19T00:50:04.780Z,15.76
2018-09-19T00:51:04.771Z,15.78
2018-09-19T00:52:04.765Z,15.84
2018-09-19T00:53:04.771Z,15.88
2018-09-19T00:54:04.766Z,15.93
2018-09-19T00:55:04.757Z,15.94
2018-09-19T00:56:04.753Z,15.88
2018-09-19T00:57:04.798Z,15.81
2018-09-19T00:58:04.750Z,15.84
2018-09-19T00:59:04.742Z,15.66
2018-09-19T01:00:04.770Z,15.59
2018-09-19T01:01:04.744Z,15.48
2018-09-19T01:02:04.758Z,15.54
2018-09-19T01:03:04.724Z,15.51
2018-09-19T01:04:04.737Z,15.46
2018-09-19T01:05:04.722Z,15.51
2018-09-19T01:06:04.718Z,15.45
2018-09-19T01:07:04.720Z,15.43
2018-09-19T01:08:04.724Z,15.42
2018-09-19T01:09:04.745Z,15.36
2018-09-19T01:10:04.711Z,15.48
2018-09-19T01:11:04.703Z,15.43
2018-09-19T01:12:04.708Z,15.52
2018-09-19T01:13:04.696Z,15.57
2018-09-19T01:14:04.693Z,15.45
2018-09-19T01:15:04.690Z,15.57
2018-09-19T01:16:04.684Z,15.64
2018-09-19T01:17:04.715Z,15.66
2018-09-19T01:18:04.684Z,15.56
2018-09-19T01:19:04.679Z,15.46
2018-09-19T01:20:04.674Z,15.60
2018-09-19T01:21:04.669Z,15.59
2018-09-19T01:22:04.666Z,15.57
2018-09-19T01:23:04.661Z,15.74
2018-09-19T01:24:04.667Z,15.70
2018-09-19T01:25:04.655Z,15.70
2018-09-19T01:26:04.653Z,15.63
2018-09-19T01:27:04.654Z,15.67
2018-09-19T01:28:04.644Z,15.66
2018-09-19T01:29:04.640Z,15.64
2018-09-19T01:30:04.640Z,15.49
2018-09-19T02:06:36.260Z,15.42
2018-09-19T02:07:36.211Z,15.41
2018-09-19T02:09:29.135Z,15.39
2018-09-19T02:10:29.110Z,15.26
2018-09-19T02:12:22.058Z,15.23
2018-09-19T02:13:22.031Z,15.09
2018-09-19T02:14:22.025Z,15.05
2018-09-19T02:15:22.017Z,14.95
2018-09-19T02:16:22.014Z,14.80
2018-09-19T02:17:22.019Z,14.84
2018-09-19T02:18:22.006Z,14.69
2018-09-19T02:19:22.002Z,14.67
2018-09-19T02:20:21.992Z,14.74
2018-09-19T02:21:21.987Z,14.69
2018-09-19T02:22:21.983Z,14.57
2018-09-19T02:23:21.985Z,14.60
2018-09-19T02:24:21.982Z,14.60
2018-09-19T02:25:21.977Z,14.39
2018-09-19T02:26:21.968Z,14.43
2018-09-19T02:27:21.969Z,14.47
2018-09-19T02:28:21.970Z,14.43
2018-09-19T02:29:21.953Z,14.39
2018-09-19T02:30:21.962Z,14.37
2018-09-19T02:31:21.947Z,14.28
2018-09-19T02:32:21.949Z,14.37
2018-09-19T02:33:21.942Z,14.44
2018-09-19T02:34:21.943Z,14.38
2018-09-19T02:35:21.938Z,14.46
2018-09-19T02:36:21.932Z,14.52
2018-09-19T02:37:21.925Z,14.65
2018-09-19T02:38:21.927Z,14.69
2018-09-19T02:39:21.922Z,14.71
2018-09-19T02:40:21.913Z,14.75
2018-09-19T02:41:21.927Z,14.87
2018-09-19T02:42:21.912Z,14.81
2018-09-19T02:43:21.903Z,14.80
2018-09-19T02:44:21.905Z,14.87
2018-09-19T02:45:21.898Z,14.84
2018-09-19T02:46:21.900Z,14.93
2018-09-19T02:47:21.893Z,14.93
2018-09-19T02:48:21.914Z,14.90
2018-09-19T02:49:21.894Z,14.74
2018-09-19T02:50:21.883Z,14.75
2018-09-19T02:51:21.876Z,14.74
2018-09-19T02:52:21.881Z,14.57
2018-09-19T02:53:21.900Z,14.62
2018-09-19T02:54:21.869Z,14.46
2018-09-19T02:55:21.861Z,14.43
2018-09-19T02:56:21.860Z,14.43
2018-09-19T02:57:21.860Z,14.49
2018-09-19T02:58:21.879Z,14.52
2018-09-19T02:59:21.849Z,14.53
2018-09-19T03:00:21.850Z,14.57
2018-09-19T03:01:21.891Z,14.56
2018-09-19T03:02:21.840Z,14.50
2018-09-19T03:03:21.841Z,14.61
2018-09-19T03:04:21.831Z,14.46
2018-09-19T03:05:21.833Z,14.38
2018-09-19T03:06:21.832Z,14.46
2018-09-19T03:07:21.825Z,14.44
2018-09-19T03:08:21.817Z,14.54
2018-09-19T03:09:21.816Z,14.61
2018-09-19T03:10:21.814Z,14.62
2018-09-19T03:11:21.807Z,14.61
2018-09-19T03:12:21.806Z,14.67
2018-09-19T03:13:21.802Z,14.60
2018-09-19T03:14:21.802Z,14.67
2018-09-19T03:15:21.793Z,14.56
2018-09-19T03:16:21.790Z,14.52
2018-09-19T03:17:21.877Z,14.43
2018-09-19T03:18:21.783Z,14.49
2018-09-19T03:19:21.780Z,14.47
2018-09-19T03:20:21.780Z,14.38
2018-09-19T03:21:21.776Z,14.47
2018-09-19T03:22:21.767Z,14.49
2018-09-19T03:23:21.787Z,14.34
2018-09-19T03:24:21.771Z,14.37
2018-09-19T03:25:21.803Z,14.31
2018-09-19T03:26:21.761Z,14.37
2018-09-19T03:27:21.750Z,14.29
2018-09-19T03:28:21.749Z,14.53
2018-09-19T03:29:21.747Z,14.67
2018-09-19T03:30:21.743Z,14.67
2018-09-19T03:31:21.747Z,14.69
2018-09-19T03:32:21.741Z,14.67
2018-09-19T03:33:21.730Z,14.61
2018-09-19T03:34:21.731Z,14.56
2018-09-19T03:35:21.740Z,14.60
2018-09-19T03:36:21.717Z,14.61
2018-09-19T03:37:21.719Z,14.53
2018-09-19T03:38:21.714Z,14.64
2018-09-19T03:39:21.732Z,14.61
2018-09-19T03:40:21.705Z,14.65
2018-09-19T03:41:21.708Z,14.78
2018-09-19T03:42:21.699Z,14.67
2018-09-19T03:43:21.698Z,14.67
2018-09-19T03:44:21.693Z,14.54
2018-09-19T03:45:21.687Z,14.49
2018-09-19T03:46:21.685Z,14.35
2018-09-19T03:47:21.680Z,14.44
2018-09-19T03:48:21.677Z,14.43
2018-09-19T03:49:21.674Z,14.43
2018-09-19T03:50:21.670Z,14.46
2018-09-19T03:51:21.670Z,14.43
2018-09-19T03:52:21.668Z,14.34
2018-09-19T03:53:21.661Z,14.38
2018-09-19T03:54:21.700Z,14.47
2018-09-19T03:55:21.652Z,14.56
2018-09-19T03:56:21.649Z,14.54
2018-09-19T03:57:21.641Z,14.50
2018-09-19T03:58:21.671Z,14.39
2018-09-19T03:59:21.639Z,14.54
2018-09-19T04:00:21.633Z,14.49
2018-09-19T04:01:21.631Z,14.39
2018-09-19T04:02:21.626Z,14.43
2018-09-19T04:03:21.627Z,14.49
2018-09-19T04:04:21.619Z,14.54
2018-09-19T04:05:21.618Z,14.57
2018-09-19T04:06:21.635Z,14.60
2018-09-19T04:07:21.612Z,14.54
2018-09-19T04:08:21.604Z,14.69
2018-09-19T04:09:21.609Z,14.54
2018-09-19T04:10:21.603Z,14.54
2018-09-19T04:11:21.600Z,14.57
2018-09-19T04:12:21.649Z,14.50
2018-09-19T04:13:21.588Z,14.49
2018-09-19T04:14:21.586Z,14.38
2018-09-19T04:15:21.581Z,14.35
2018-09-19T04:16:21.598Z,14.46
2018-09-19T04:17:21.577Z,14.38
2018-09-19T04:18:21.574Z,14.44
2018-09-19T04:19:21.565Z,14.49
2018-09-19T04:20:22.507Z,14.52
2018-09-19T04:21:21.601Z,14.61
2018-09-19T04:22:21.619Z,14.57
2018-09-19T04:23:21.590Z,14.54
2018-09-19T04:24:21.561Z,14.68
2018-09-19T04:25:21.581Z,14.69
2018-09-19T04:26:21.583Z,14.53
2018-09-19T04:27:21.549Z,14.67
2018-09-19T04:28:21.548Z,14.61
2018-09-19T04:29:21.553Z,14.57
2018-09-19T04:30:21.566Z,14.47
2018-09-19T04:31:21.571Z,14.56
2018-09-19T04:32:21.637Z,14.61
2018-09-19T04:33:21.524Z,14.52
2018-09-19T04:34:21.541Z,14.71
2018-09-19T04:35:21.517Z,14.74
2018-09-19T04:36:21.529Z,14.78
2018-09-19T04:37:21.520Z,14.78
2018-09-19T04:38:21.514Z,14.83
2018-09-19T04:39:21.528Z,14.83
2018-09-19T04:40:21.532Z,14.88
2018-09-19T04:41:21.538Z,14.75
2018-09-19T04:42:21.558Z,14.75
2018-09-19T04:43:21.491Z,14.72
2018-09-19T04:44:21.494Z,14.67
2018-09-19T04:45:21.532Z,14.72
2018-09-19T04:46:21.518Z,14.74
2018-09-19T04:47:21.478Z,14.69
2018-09-19T04:48:21.483Z,14.81
2018-09-19T04:49:22.019Z,14.68
2018-09-19T04:50:21.491Z,14.53
2018-09-19T04:51:22.173Z,14.53
2018-09-19T04:52:21.510Z,14.39
2018-09-19T04:53:21.454Z,14.43
2018-09-19T04:54:21.459Z,14.39
2018-09-19T04:55:21.444Z,14.27
2018-09-19T04:56:21.449Z,14.28
2018-09-19T04:57:21.451Z,14.32
2018-09-19T04:58:21.450Z,14.37
2018-09-19T04:59:21.443Z,14.49
2018-09-19T05:00:21.458Z,14.35
2018-09-19T05:01:21.425Z,14.53
2018-09-19T05:02:21.476Z,14.54
2018-09-19T05:03:21.417Z,14.61
2018-09-19T05:04:21.406Z,14.56
2018-09-19T05:05:21.402Z,14.60
2018-09-19T05:06:21.395Z,14.56
2018-09-19T05:07:21.466Z,14.61
2018-09-19T05:08:21.411Z,14.56
2018-09-19T05:09:21.380Z,14.49
2018-09-19T05:10:21.399Z,14.49
2018-09-19T05:11:21.448Z,14.52
2018-09-19T05:12:21.382Z,14.52
2018-09-19T05:13:21.371Z,14.54
2018-09-19T05:14:21.367Z,14.52
2018-09-19T05:15:21.356Z,14.53
2018-09-19T05:16:21.374Z,14.53
2018-09-19T05:17:21.354Z,14.56
2018-09-19T05:18:21.359Z,14.54
2018-09-19T05:19:21.347Z,14.64
2018-09-19T05:20:21.355Z,14.65
2018-09-19T05:21:21.359Z,14.75
2018-09-19T05:22:21.345Z,14.71
2018-09-19T05:23:21.337Z,14.71
2018-09-19T05:24:21.333Z,14.69
2018-09-19T05:25:21.333Z,14.75
2018-09-19T05:26:21.324Z,14.78
2018-09-19T05:27:21.321Z,14.80
2018-09-19T05:28:21.321Z,14.84
2018-09-19T05:29:21.314Z,14.86
2018-09-19T05:30:21.315Z,14.86
2018-09-19T05:31:21.307Z,14.83
2018-09-19T05:32:21.296Z,14.83
2018-09-19T05:33:21.297Z,14.84
2018-09-19T05:34:21.301Z,14.87
2018-09-19T05:35:21.287Z,14.91
2018-09-19T05:36:21.287Z,14.98
2018-09-19T05:37:21.286Z,15.06
2018-09-19T05:38:21.280Z,15.06
2018-09-19T05:39:21.281Z,15.17
2018-09-19T05:40:21.276Z,15.27
2018-09-19T05:41:21.272Z,15.28
2018-09-19T05:42:21.286Z,15.42
2018-09-19T05:43:21.266Z,15.42
2018-09-19T05:44:21.264Z,15.49
2018-09-19T05:45:21.262Z,15.49
2018-09-19T05:46:21.271Z,15.57
2018-09-19T05:47:21.252Z,15.64
2018-09-19T05:48:21.249Z,15.66
2018-09-19T05:49:21.250Z,15.72
2018-09-19T05:50:21.237Z,15.82
2018-09-19T05:51:21.237Z,15.81
2018-09-19T05:52:21.238Z,15.78
2018-09-19T05:53:21.228Z,15.93
2018-09-19T05:54:21.264Z,15.85
2018-09-19T05:55:21.238Z,15.92
2018-09-19T05:56:21.225Z,16.12
2018-09-19T05:57:21.249Z,16.04
2018-09-19T05:58:21.214Z,16.09
2018-09-19T05:59:21.238Z,16.25
2018-09-19T06:00:21.213Z,16.34
2018-09-19T06:01:21.204Z,16.44
2018-09-19T06:02:21.253Z,16.59
2018-09-19T06:03:21.237Z,16.75
2018-09-19T06:04:21.202Z,16.81
2018-09-19T06:05:21.195Z,16.89
2018-09-19T06:06:21.191Z,16.93
2018-09-19T06:07:21.194Z,17.06
2018-09-19T06:08:21.197Z,17.07
2018-09-19T06:09:21.195Z,17.22
2018-09-19T06:10:21.213Z,17.30
2018-09-19T06:11:21.176Z,17.46
2018-09-19T06:12:21.170Z,17.51
2018-09-19T06:13:21.184Z,17.71
2018-09-19T06:14:21.169Z,17.71
2018-09-19T06:15:21.171Z,17.82
2018-09-19T06:16:21.164Z,17.87
2018-09-19T06:17:21.161Z,17.89
2018-09-19T06:18:21.164Z,18.13
2018-09-19T06:19:21.158Z,18.27
2018-09-19T06:20:21.155Z,18.31
2018-09-19T06:21:21.155Z,18.67
2018-09-19T06:22:21.154Z,18.72
2018-09-19T06:23:21.160Z,18.94
2018-09-19T06:24:21.150Z,19.20
2018-09-19T06:25:21.161Z,19.28
2018-09-19T06:26:21.148Z,19.24
2018-09-19T06:27:21.158Z,19.31
2018-09-19T06:28:21.145Z,19.43
2018-09-19T06:29:21.139Z,19.86
2018-09-19T06:30:21.142Z,20.15
2018-09-19T06:31:21.141Z,20.53
2018-09-19T06:32:21.154Z,21.14
2018-09-19T06:33:21.153Z,21.53
2018-09-19T06:34:21.139Z,21.72
2018-09-19T06:35:21.136Z,21.72
2018-09-19T06:36:21.140Z,21.64
2018-09-19T06:37:21.137Z,20.91
2018-09-19T06:38:21.159Z,20.09
2018-09-19T06:39:21.239Z,19.78
2018-09-19T06:40:21.152Z,19.36
2018-09-19T06:41:21.153Z,19.17
2018-09-19T06:42:21.146Z,19.25
2018-09-19T06:43:21.148Z,19.29
2018-09-19T06:44:21.147Z,19.20
2018-09-19T06:45:21.149Z,19.13
2018-09-19T06:46:21.150Z,19.20
2018-09-19T06:47:21.149Z,19.25
2018-09-19T06:48:21.148Z,19.25
2018-09-19T06:49:21.152Z,19.36
2018-09-19T06:50:21.148Z,19.29
2018-09-19T06:51:21.154Z,20.35
2018-09-19T06:52:21.170Z,20.39
2018-09-19T06:53:21.152Z,20.58
2018-09-19T06:54:21.153Z,21.21
2018-09-19T06:55:21.155Z,21.42
2018-09-19T06:56:21.154Z,21.74
2018-09-19T06:57:21.155Z,22.34
2018-09-19T06:58:21.165Z,22.60
2018-09-19T06:59:21.164Z,22.47
2018-09-19T07:00:21.165Z,22.62
2018-09-19T07:01:21.166Z,22.38
2018-09-19T07:02:21.197Z,22.47
2018-09-19T07:03:23.068Z,21.97
2018-09-19T07:04:21.250Z,21.36
2018-09-19T07:05:21.273Z,21.48
2018-09-19T07:06:21.197Z,22.28
2018-09-19T07:07:21.189Z,22.71
2018-09-19T07:08:21.193Z,23.12
2018-09-19T07:09:21.202Z,23.49
2018-09-19T07:10:21.253Z,22.86
2018-09-19T07:11:21.206Z,23.02
2018-09-19T07:12:21.212Z,23.05
2018-09-19T07:13:21.213Z,23.70
2018-09-19T07:14:21.220Z,23.71
2018-09-19T07:15:21.223Z,24.29
2018-09-19T07:16:21.251Z,24.68
2018-09-19T07:17:21.238Z,24.47
2018-09-19T07:18:21.241Z,24.42
2018-09-19T07:19:21.245Z,24.02
2018-09-19T07:20:21.251Z,24.10
2018-09-19T07:21:21.261Z,24.68
2018-09-19T07:22:21.263Z,25.39
2018-09-19T07:23:21.290Z,25.62
2018-09-19T07:24:21.271Z,25.16
2018-09-19T07:25:21.346Z,25.34
2018-09-19T07:26:21.285Z,25.09
2018-09-19T07:27:21.297Z,25.34
2018-09-19T07:28:21.300Z,25.28
2018-09-19T07:29:21.319Z,25.57
2018-09-19T07:30:21.315Z,25.62
2018-09-19T07:31:21.330Z,25.27
2018-09-19T07:32:21.326Z,25.05
2018-09-19T07:33:21.341Z,24.69
2018-09-19T07:34:21.351Z,24.95
2018-09-19T07:35:21.348Z,25.38
2018-09-19T07:36:21.354Z,24.88
2018-09-19T07:37:21.366Z,25.37
2018-09-19T07:38:21.370Z,25.22
2018-09-19T07:39:21.375Z,25.57
2018-09-19T07:40:21.422Z,26.06
2018-09-19T07:41:21.397Z,26.18
2018-09-19T07:42:21.400Z,26.22
2018-09-19T07:43:21.415Z,26.21
2018-09-19T07:44:21.423Z,26.22
2018-09-19T07:45:21.430Z,26.81
2018-09-19T07:46:21.479Z,26.72
2018-09-19T07:47:21.447Z,26.94
2018-09-19T07:48:21.451Z,26.80
2018-09-19T07:49:21.454Z,26.17
2018-09-19T07:50:21.467Z,25.77
2018-09-19T07:51:21.481Z,25.52
2018-09-19T07:52:21.485Z,26.32
2018-09-19T07:53:21.496Z,26.87
2018-09-19T07:54:21.502Z,28.06
2018-09-19T07:55:21.548Z,28.65
2018-09-19T07:56:21.522Z,27.91
2018-09-19T07:57:21.536Z,27.10
2018-09-19T07:58:21.542Z,26.50
2018-09-19T07:59:21.549Z,27.48
2018-09-19T08:00:21.585Z,27.88
2018-09-19T08:01:21.631Z,28.11
2018-09-19T08:02:21.580Z,28.19
2018-09-19T08:03:21.618Z,28.54
2018-09-19T08:04:21.597Z,28.46
2018-09-19T08:05:21.607Z,28.56
2018-09-19T08:06:21.620Z,29.28
2018-09-19T08:07:21.626Z,29.52
2018-09-19T08:08:21.648Z,28.88
2018-09-19T08:09:21.648Z,28.63
2018-09-19T08:10:21.661Z,28.26
2018-09-19T08:11:21.674Z,28.77
2018-09-19T08:12:21.673Z,28.84
2018-09-19T08:13:21.691Z,28.48
2018-09-19T08:14:21.698Z,29.18
2018-09-19T08:15:21.710Z,28.72
2018-09-19T08:16:21.722Z,29.18
2018-09-19T08:17:21.731Z,29.25
2018-09-19T08:18:21.744Z,28.72
2018-09-19T08:19:21.753Z,28.54
2018-09-19T08:20:21.768Z,29.13
2018-09-19T08:21:21.775Z,29.10
2018-09-19T08:22:21.782Z,28.85
2018-09-19T08:23:21.802Z,29.15
2018-09-19T08:24:21.810Z,28.84
2018-09-19T08:25:21.826Z,28.93
2018-09-19T08:26:21.835Z,29.13
2018-09-19T08:27:21.852Z,28.73
2018-09-19T08:28:21.862Z,28.95
2018-09-19T08:29:21.871Z,28.78
2018-09-19T08:30:21.887Z,28.16
2018-09-19T08:31:21.889Z,28.65
2018-09-19T08:32:21.899Z,29.00
2018-09-19T08:33:21.915Z,28.85
2018-09-19T08:34:21.929Z,28.53
2018-09-19T08:35:21.945Z,28.95
2018-09-19T08:36:21.953Z,29.20
2018-09-19T08:37:21.963Z,29.70
2018-09-19T08:38:21.977Z,30.37
2018-09-19T08:39:21.986Z,29.68
2018-09-19T08:40:22.002Z,29.25
2018-09-19T08:41:22.006Z,29.44
2018-09-19T08:42:22.017Z,29.29
2018-09-19T08:43:22.037Z,29.13
2018-09-19T08:44:22.049Z,28.19
2018-09-19T08:45:22.058Z,28.70
2018-09-19T08:46:22.075Z,29.41
2018-09-19T08:47:22.097Z,29.79
2018-09-19T08:48:22.121Z,29.72
2018-09-19T08:49:22.107Z,29.25
2018-09-19T08:50:22.179Z,29.77
2018-09-19T08:51:22.137Z,30.37
2018-09-19T08:52:22.146Z,30.26
2018-09-19T08:53:22.162Z,30.16
2018-09-19T08:54:22.173Z,30.78
2018-09-19T08:55:22.209Z,29.44
2018-09-19T08:56:22.198Z,29.22
2018-09-19T08:57:22.218Z,29.35
2018-09-19T08:58:22.220Z,29.77
2018-09-19T08:59:22.264Z,30.53
2018-09-19T09:00:22.248Z,30.57
2018-09-19T09:01:22.264Z,30.62
2018-09-19T09:02:22.273Z,30.49
2018-09-19T09:03:22.284Z,31.23
2018-09-19T09:04:22.312Z,31.24
2018-09-19T09:05:22.389Z,30.53
2018-09-19T09:06:22.325Z,30.11
2018-09-19T09:07:22.339Z,29.94
2018-09-19T09:08:22.353Z,31.18
2018-09-19T09:09:22.364Z,31.04
2018-09-19T09:10:22.369Z,30.19
2018-09-19T09:11:22.391Z,29.92
2018-09-19T09:12:22.445Z,29.38
2018-09-19T09:13:22.413Z,29.82
2018-09-19T09:14:22.446Z,29.60
2018-09-19T09:15:22.445Z,29.59
2018-09-19T09:16:22.459Z,29.96
2018-09-19T09:17:22.482Z,30.49
2018-09-19T09:18:22.484Z,30.38
2018-09-19T09:19:22.495Z,30.78
2018-09-19T09:20:22.508Z,30.90
2018-09-19T09:21:22.528Z,30.57
2018-09-19T09:22:22.535Z,30.78
2018-09-19T09:23:22.549Z,31.08
2018-09-19T09:24:22.565Z,31.05
2018-09-19T09:25:22.576Z,30.02
2018-09-19T09:26:22.593Z,29.96
2018-09-19T09:27:22.666Z,30.57
2018-09-19T09:28:22.617Z,30.78
2018-09-19T09:29:22.631Z,30.74
2018-09-19T09:30:22.651Z,30.31
2018-09-19T09:31:22.657Z,30.37
2018-09-19T09:32:22.662Z,30.03
2018-09-19T09:33:22.684Z,29.16
2018-09-19T09:34:22.751Z,29.84
2018-09-19T09:35:22.732Z,30.05
2018-09-19T09:36:22.729Z,30.81
2018-09-19T09:37:22.750Z,31.04
2018-09-19T09:38:22.775Z,32.13
2018-09-19T09:39:22.767Z,32.30
2018-09-19T09:40:22.840Z,33.63
2018-09-19T09:41:22.798Z,34.60
2018-09-19T09:42:22.808Z,34.19
2018-09-19T09:43:22.879Z,32.88
2018-09-19T09:44:22.841Z,33.01
2018-09-19T09:45:22.851Z,33.42
2018-09-19T09:46:22.865Z,33.01
2018-09-19T09:47:22.878Z,32.85
2018-09-19T09:48:22.894Z,34.00
2018-09-19T09:49:22.906Z,33.83
2018-09-19T09:50:22.971Z,32.73
2018-09-19T09:51:22.967Z,31.45
2018-09-19T09:52:22.958Z,32.10
2018-09-19T09:53:23.015Z,32.74
2018-09-19T09:54:22.986Z,32.40
2018-09-19T09:55:22.997Z,32.55
2018-09-19T09:56:23.009Z,33.27
2018-09-19T09:57:23.026Z,34.04
2018-09-19T09:58:23.076Z,34.32
2018-09-19T09:59:23.121Z,34.38
2018-09-19T10:00:23.152Z,33.94
2018-09-19T10:01:23.076Z,33.94
2018-09-19T10:02:23.099Z,33.10
2018-09-19T10:03:23.166Z,32.96
2018-09-19T10:04:23.127Z,32.57
2018-09-19T10:05:23.137Z,32.66
2018-09-19T10:06:23.202Z,31.98
2018-09-19T10:07:23.168Z,32.06
2018-09-19T10:08:23.176Z,31.93
2018-09-19T10:09:23.193Z,31.67
2018-09-19T10:10:23.213Z,31.64
2018-09-19T10:11:23.223Z,32.17
2018-09-19T10:12:23.235Z,33.23
2018-09-19T10:13:23.252Z,33.61
2018-09-19T10:14:23.265Z,32.76
2018-09-19T10:15:23.288Z,32.61
2018-09-19T10:16:23.298Z,32.42
2018-09-19T10:17:23.310Z,32.61
2018-09-19T10:18:23.317Z,31.49
2018-09-19T10:19:23.342Z,31.68
2018-09-19T10:20:23.356Z,30.81
2018-09-19T10:21:23.362Z,31.48
2018-09-19T10:22:23.384Z,31.88
2018-09-19T10:23:23.390Z,32.32
2018-09-19T10:24:23.406Z,32.74
2018-09-19T10:25:23.422Z,33.30
2018-09-19T10:26:23.440Z,33.34
2018-09-19T10:27:23.450Z,32.84
2018-09-19T10:28:23.472Z,32.69
2018-09-19T10:29:23.509Z,32.64
2018-09-19T10:30:23.496Z,32.07
2018-09-19T10:31:23.504Z,32.42
2018-09-19T10:32:23.517Z,32.42
2018-09-19T10:33:23.536Z,32.89
2018-09-19T10:34:23.546Z,32.85
2018-09-19T10:35:23.636Z,31.55
2018-09-19T10:36:23.585Z,31.36
2018-09-19T10:37:23.629Z,31.58
2018-09-19T10:38:23.610Z,32.92
2018-09-19T10:39:23.626Z,33.83
2018-09-19T10:40:23.636Z,33.87
2018-09-19T10:41:23.659Z,34.57
2018-09-19T10:42:23.664Z,34.77
2018-09-19T10:43:23.682Z,34.81
2018-09-19T10:44:23.700Z,33.86
2018-09-19T10:45:23.702Z,33.14
2018-09-19T10:46:23.721Z,33.49
2018-09-19T10:47:23.735Z,33.43
2018-09-19T10:48:23.752Z,33.67
2018-09-19T10:49:23.796Z,34.08
2018-09-19T10:50:23.782Z,35.18
2018-09-19T10:51:23.794Z,35.77
2018-09-19T10:52:23.807Z,36.38
2018-09-19T10:53:23.826Z,35.39
2018-09-19T10:54:23.890Z,34.79
2018-09-19T10:55:23.852Z,34.54
2018-09-19T10:56:23.870Z,33.94
2018-09-19T10:57:23.883Z,33.71
2018-09-19T10:58:23.898Z,34.41
2018-09-19T10:59:23.937Z,34.57
2018-09-19T11:00:23.955Z,34.00
2018-09-19T11:01:23.938Z,33.31
2018-09-19T11:02:23.954Z,33.63
2018-09-19T11:03:23.965Z,33.71
2018-09-19T11:04:23.981Z,33.94
2018-09-19T11:05:23.998Z,34.00
2018-09-19T11:06:24.015Z,33.97
2018-09-19T11:07:24.024Z,34.99
2018-09-19T11:08:24.043Z,35.81
2018-09-19T11:09:24.064Z,35.33
2018-09-19T11:10:24.070Z,35.17
2018-09-19T11:11:24.085Z,33.65
2018-09-19T11:12:24.097Z,32.93
2018-09-19T11:13:24.107Z,32.76
2018-09-19T11:14:24.128Z,32.59
2018-09-19T11:15:24.145Z,32.33
2018-09-19T11:16:24.156Z,31.31
2018-09-19T11:17:24.208Z,31.61
2018-09-19T11:18:24.180Z,31.05
2018-09-19T11:19:24.203Z,31.15
2018-09-19T11:20:24.215Z,31.30
2018-09-19T11:21:24.228Z,31.58
2018-09-19T11:22:24.241Z,31.28
2018-09-19T11:23:24.256Z,31.98
2018-09-19T11:24:24.271Z,32.42
2018-09-19T11:25:24.286Z,33.39
2018-09-19T11:26:24.302Z,33.95
2018-09-19T11:27:24.313Z,33.83
2018-09-19T11:28:24.331Z,33.67
2018-09-19T11:29:24.340Z,33.31
2018-09-19T11:30:24.355Z,32.99
2018-09-19T11:31:24.370Z,32.70
2018-09-19T11:32:24.383Z,32.95
2018-09-19T11:33:24.392Z,32.95
2018-09-19T11:34:24.401Z,33.89
2018-09-19T11:35:24.420Z,34.27
2018-09-19T11:36:24.436Z,34.38
2018-09-19T11:37:24.448Z,34.26
2018-09-19T11:38:24.468Z,33.83
2018-09-19T11:39:24.476Z,34.27
2018-09-19T11:40:24.495Z,33.94
2018-09-19T11:41:24.504Z,33.95
2018-09-19T11:42:24.519Z,34.60
2018-09-19T11:43:24.536Z,35.17
2018-09-19T11:44:24.547Z,35.33
2018-09-19T11:45:24.569Z,34.96
2018-09-19T11:46:24.575Z,35.25
2018-09-19T11:47:24.588Z,34.76
2018-09-19T11:48:24.667Z,33.43
2018-09-19T11:49:24.763Z,32.95
2018-09-19T11:50:24.627Z,33.52
2018-09-19T11:51:24.644Z,33.03
2018-09-19T11:52:24.660Z,33.34
2018-09-19T11:53:24.672Z,32.62
2018-09-19T11:54:24.683Z,31.58
2018-09-19T11:55:24.696Z,32.05
2018-09-19T11:56:24.710Z,32.39
2018-09-19T11:57:24.723Z,32.95
2018-09-19T11:58:24.739Z,33.49
2018-09-19T11:59:24.767Z,33.70
2018-09-19T12:00:24.769Z,33.27
2018-09-19T12:01:24.780Z,33.26
2018-09-19T12:02:24.823Z,33.73
2018-09-19T12:03:24.813Z,33.76
2018-09-19T12:04:24.821Z,32.79
2018-09-19T12:05:24.834Z,31.61
2018-09-19T12:06:24.848Z,30.90
2018-09-19T12:07:24.905Z,31.01
2018-09-19T12:08:24.881Z,30.99
2018-09-19T12:09:24.889Z,30.99
2018-09-19T12:10:24.898Z,30.47
2018-09-19T12:11:24.911Z,29.18
2018-09-19T12:12:24.927Z,28.54
2018-09-19T12:13:24.939Z,28.80
2018-09-19T12:14:24.957Z,29.08
2018-09-19T12:15:24.964Z,29.08
2018-09-19T12:16:24.973Z,28.96
2018-09-19T12:17:25.071Z,28.36
2018-09-19T12:18:24.997Z,28.35
2018-09-19T12:19:25.024Z,27.99
2018-09-19T12:20:25.014Z,27.89
2018-09-19T12:21:25.032Z,27.92
2018-09-19T12:22:25.032Z,27.89
2018-09-19T12:23:25.041Z,27.67
2018-09-19T12:24:25.051Z,27.88
2018-09-19T12:25:25.055Z,28.01
2018-09-19T12:26:25.100Z,28.21
2018-09-19T12:27:25.072Z,28.38
2018-09-19T12:28:25.079Z,28.46
2018-09-19T12:29:25.084Z,28.04
2018-09-19T12:30:25.094Z,28.14
2018-09-19T12:31:25.099Z,28.19
2018-09-19T12:32:25.109Z,27.98
2018-09-19T12:33:25.164Z,27.76
2018-09-19T12:34:25.168Z,27.57
2018-09-19T12:35:25.121Z,27.48
2018-09-19T12:36:25.131Z,27.73
2018-09-19T12:37:25.137Z,27.91
2018-09-19T12:38:25.136Z,27.92
2018-09-19T12:39:25.173Z,28.10
2018-09-19T12:40:25.153Z,28.16
2018-09-19T12:41:25.154Z,28.07
2018-09-19T12:42:25.165Z,27.88
2018-09-19T12:43:25.164Z,27.64
2018-09-19T12:44:25.169Z,27.67
2018-09-19T12:45:25.177Z,27.53
2018-09-19T12:46:25.186Z,27.69
2018-09-19T12:47:25.183Z,27.62
2018-09-19T12:48:25.191Z,27.61
2018-09-19T12:49:25.197Z,27.61
2018-09-19T12:50:25.196Z,27.74
2018-09-19T12:51:25.199Z,27.67
2018-09-19T12:52:25.219Z,27.57
2018-09-19T12:53:25.386Z,27.54
2018-09-19T12:54:25.212Z,27.46
2018-09-19T12:55:25.219Z,27.47
2018-09-19T12:56:25.221Z,27.69
2018-09-19T12:57:25.225Z,27.69
2018-09-19T12:58:25.233Z,27.67
2018-09-19T12:59:25.235Z,27.53
2018-09-19T13:00:25.241Z,27.41
2018-09-19T13:01:25.252Z,27.47
2018-09-19T13:02:25.260Z,27.50
2018-09-19T13:03:25.264Z,27.46
2018-09-19T13:04:25.269Z,27.50
2018-09-19T13:05:25.280Z,27.66
2018-09-19T13:06:25.316Z,27.73
2018-09-19T13:07:25.290Z,27.64
2018-09-19T13:08:25.297Z,27.47
2018-09-19T13:09:25.290Z,27.54
2018-09-19T13:10:25.310Z,27.69
2018-09-19T13:11:25.310Z,27.47
2018-09-19T13:12:25.322Z,27.31
2018-09-19T13:13:25.326Z,27.46
2018-09-19T13:14:25.305Z,27.54
2018-09-19T13:15:25.340Z,27.46
2018-09-19T13:16:25.353Z,27.28
2018-09-19T13:17:26.177Z,27.33
2018-09-19T13:18:26.178Z,27.46
2018-09-19T13:19:25.366Z,27.53
2018-09-19T13:20:25.375Z,27.73
2018-09-19T13:21:25.380Z,27.71
2018-09-19T13:22:25.386Z,27.91
2018-09-19T13:23:26.102Z,27.95
2018-09-19T13:24:25.380Z,28.01
2018-09-19T13:25:25.338Z,28.23
2018-09-19T13:26:25.344Z,28.16
2018-09-19T13:27:25.415Z,28.13
2018-09-19T13:28:25.363Z,28.03
2018-09-19T13:29:25.364Z,28.16